createdAt,value
2022-08-25T00:00:49.990Z,3.10
2022-08-25T00:01:56.298Z,2.92
2022-08-25T00:02:58.157Z,2.85
2022-08-25T00:04:02.053Z,3.13
2022-08-25T00:05:05.277Z,2.88
2022-08-25T00:06:09.590Z,2.80
2022-08-25T00:07:12.175Z,2.70
2022-08-25T00:08:20.294Z,2.80
2022-08-25T00:09:26.310Z,3.00
2022-08-25T00:10:28.577Z,2.83
2022-08-25T00:11:32.330Z,2.80
2022-08-25T00:12:34.025Z,3.40
2022-08-25T00:13:35.726Z,3.08
2022-08-25T00:14:38.666Z,2.70
2022-08-25T00:15:40.572Z,2.70
2022-08-25T00:16:42.681Z,2.90
2022-08-25T00:17:44.468Z,3.15
2022-08-25T00:18:50.286Z,3.00
2022-08-25T00:19:52.003Z,2.80
2022-08-25T00:20:53.809Z,3.30
2022-08-25T00:21:56.328Z,3.00
2022-08-25T00:22:58.506Z,3.15
2022-08-25T00:24:04.638Z,2.60
2022-08-25T00:25:06.581Z,2.85
2022-08-25T00:26:09.269Z,3.00
2022-08-25T00:27:12.592Z,2.60
2022-08-25T00:28:16.717Z,3.00
2022-08-25T00:29:19.018Z,2.95
2022-08-25T00:30:20.806Z,2.78
2022-08-25T00:31:23.410Z,2.85
2022-08-25T00:32:39.777Z,3.10
2022-08-25T00:33:42.393Z,2.97
2022-08-25T00:34:45.020Z,3.05
2022-08-25T00:35:46.746Z,2.80
2022-08-25T00:36:51.701Z,2.97
2022-08-25T00:37:53.495Z,2.70
2022-08-25T00:38:56.138Z,2.78
2022-08-25T00:39:58.591Z,2.97
2022-08-25T00:41:06.506Z,2.83
2022-08-25T00:42:11.880Z,3.03
2022-08-25T00:45:35.029Z,2.88
2022-08-25T00:46:44.313Z,2.83
2022-08-25T00:47:46.303Z,2.85
2022-08-25T00:48:51.766Z,2.92
2022-08-25T00:49:59.558Z,2.92
2022-08-25T00:51:03.061Z,2.88
2022-08-25T00:52:20.377Z,3.25
2022-08-25T00:53:22.186Z,3.38
2022-08-25T00:54:31.790Z,2.80
2022-08-25T00:55:39.885Z,2.97
2022-08-25T00:56:42.704Z,2.80
2022-08-25T00:57:49.955Z,3.17
2022-08-25T00:58:52.112Z,3.20
2022-08-25T00:59:54.786Z,2.72
2022-08-25T01:00:57.905Z,2.90
2022-08-25T01:02:00.480Z,3.47
2022-08-25T01:03:02.878Z,2.80
2022-08-25T01:04:05.018Z,3.03
2022-08-25T01:05:07.798Z,2.80
2022-08-25T01:06:11.549Z,3.03
2022-08-25T01:07:17.775Z,2.95
2022-08-25T01:08:26.305Z,2.92
2022-08-25T01:09:32.556Z,2.78
2022-08-25T01:10:36.407Z,3.10
2022-08-25T01:11:38.279Z,2.70
2022-08-25T01:12:40.823Z,2.70
2022-08-25T01:13:49.285Z,3.25
2022-08-25T01:14:51.530Z,2.80
2022-08-25T01:15:56.135Z,3.05
2022-08-25T01:16:59.230Z,2.83
2022-08-25T01:18:01.151Z,3.53
2022-08-25T01:19:04.611Z,3.47
2022-08-25T01:20:06.706Z,3.42
2022-08-25T01:21:08.413Z,2.92
2022-08-25T01:22:12.053Z,3.15
2022-08-25T01:23:13.863Z,3.25
2022-08-25T01:24:37.599Z,3.22
2022-08-25T01:25:51.521Z,3.20
2022-08-25T01:26:53.352Z,3.28
2022-08-25T01:27:55.808Z,2.95
2022-08-25T01:29:17.219Z,3.40
2022-08-25T01:30:19.598Z,3.20
2022-08-25T01:31:24.119Z,2.85
2022-08-25T01:32:26.446Z,3.03
2022-08-25T01:33:28.191Z,3.40
2022-08-25T01:34:33.075Z,3.30
2022-08-25T01:35:35.800Z,3.25
2022-08-25T01:36:38.320Z,3.38
2022-08-25T01:37:40.094Z,3.28
2022-08-25T01:38:41.782Z,3.50
2022-08-25T01:39:43.893Z,3.10
2022-08-25T01:40:45.709Z,3.28
2022-08-25T01:42:12.143Z,3.50
2022-08-25T01:43:26.950Z,3.58
2022-08-25T01:44:29.771Z,3.03
2022-08-25T01:45:31.455Z,3.10
2022-08-25T01:46:33.979Z,3.83
2022-08-25T01:47:37.136Z,3.17
2022-08-25T01:48:39.030Z,3.30
2022-08-25T01:49:40.992Z,3.30
2022-08-25T01:50:44.171Z,3.17
2022-08-25T01:52:10.897Z,3.55
2022-08-25T01:53:29.450Z,3.58
2022-08-25T01:54:35.242Z,3.25
2022-08-25T01:55:55.467Z,3.33
2022-08-25T01:56:58.466Z,3.10
2022-08-25T01:58:00.248Z,3.17
2022-08-25T01:59:01.983Z,3.50
2022-08-25T02:00:07.382Z,3.92
2022-08-25T02:01:15.992Z,3.42
2022-08-25T02:02:18.343Z,3.70
2022-08-25T02:03:20.666Z,3.20
2022-08-25T02:04:22.648Z,3.58
2022-08-25T02:05:24.421Z,3.53
2022-08-25T02:06:32.185Z,3.60
2022-08-25T02:07:35.852Z,3.75
2022-08-25T02:08:38.257Z,3.47
2022-08-25T02:09:39.959Z,3.13
2022-08-25T02:10:41.870Z,3.75
2022-08-25T02:11:46.633Z,3.67
2022-08-25T02:12:48.449Z,3.50
2022-08-25T02:13:52.375Z,3.63
2022-08-25T02:14:54.093Z,3.78
2022-08-25T02:15:58.032Z,3.63
2022-08-25T02:16:59.873Z,3.47
2022-08-25T02:18:01.623Z,3.60
2022-08-25T02:19:06.807Z,4.15
2022-08-25T02:20:09.666Z,3.83
2022-08-25T02:21:11.618Z,3.58
2022-08-25T02:22:13.318Z,3.97
2022-08-25T02:23:15.673Z,3.28
2022-08-25T02:24:17.973Z,3.97
2022-08-25T02:25:20.569Z,3.40
2022-08-25T02:26:22.712Z,3.80
2022-08-25T02:27:24.398Z,3.45
2022-08-25T02:28:26.423Z,3.63
2022-08-25T02:29:28.218Z,3.90
2022-08-25T02:30:31.002Z,3.63
2022-08-25T02:31:33.304Z,3.67
2022-08-25T02:32:35.277Z,3.70
2022-08-25T02:33:37.357Z,3.88
2022-08-25T02:34:41.420Z,3.92
2022-08-25T02:35:43.097Z,4.05
2022-08-25T02:36:44.889Z,3.78
2022-08-25T02:37:46.762Z,3.83
2022-08-25T02:38:48.816Z,4.10
2022-08-25T02:39:50.563Z,4.32
2022-08-25T02:40:52.309Z,4.13
2022-08-25T02:41:54.363Z,3.95
2022-08-25T02:42:57.409Z,4.47
2022-08-25T02:44:00.246Z,3.67
2022-08-25T02:45:02.172Z,3.88
2022-08-25T02:46:03.964Z,3.65
2022-08-25T02:47:08.056Z,4.13
2022-08-25T02:48:09.762Z,4.20
2022-08-25T02:49:11.452Z,4.07
2022-08-25T02:50:13.179Z,3.78
2022-08-25T02:51:15.179Z,4.18
2022-08-25T02:52:16.934Z,3.95
2022-08-25T02:53:19.694Z,4.13
2022-08-25T02:54:23.087Z,3.83
2022-08-25T02:55:24.828Z,3.95
2022-08-25T02:56:26.875Z,3.90
2022-08-25T02:57:29.244Z,3.80
2022-08-25T02:58:30.964Z,4.22
2022-08-25T02:59:32.719Z,4.43
2022-08-25T03:00:34.592Z,3.80
2022-08-25T03:01:37.090Z,4.05
2022-08-25T03:02:41.312Z,3.85
2022-08-25T03:03:44.937Z,4.10
2022-08-25T03:04:47.460Z,4.53
2022-08-25T03:05:49.509Z,4.07
2022-08-25T03:06:51.175Z,4.07
2022-08-25T03:07:52.878Z,4.38
2022-08-25T03:08:56.722Z,4.20
2022-08-25T03:09:58.428Z,4.30
2022-08-25T03:11:00.478Z,3.90
2022-08-25T03:12:02.288Z,4.95
2022-08-25T03:13:04.769Z,4.05
2022-08-25T03:14:08.144Z,4.80
2022-08-25T03:15:12.748Z,4.25
2022-08-25T03:16:14.842Z,4.55
2022-08-25T03:17:16.618Z,4.03
2022-08-25T03:18:18.285Z,4.15
2022-08-25T03:19:19.993Z,4.63
2022-08-25T03:20:24.074Z,4.38
2022-08-25T03:21:27.083Z,3.72
2022-08-25T03:22:29.139Z,4.35
2022-08-25T03:23:30.865Z,4.38
2022-08-25T03:24:32.620Z,3.80
2022-08-25T03:25:53.045Z,4.63
2022-08-25T03:26:56.920Z,4.57
2022-08-25T03:27:58.628Z,4.60
2022-08-25T03:29:04.947Z,4.22
2022-08-25T03:30:07.561Z,4.10
2022-08-25T03:31:09.939Z,4.45
2022-08-25T03:32:11.701Z,4.07
2022-08-25T03:33:14.159Z,4.93
2022-08-25T03:34:18.111Z,4.63
2022-08-25T03:35:20.041Z,4.00
2022-08-25T03:36:21.862Z,4.20
2022-08-25T03:37:33.042Z,4.30
2022-08-25T03:38:36.082Z,4.57
2022-08-25T03:39:37.763Z,4.13
2022-08-25T03:40:39.441Z,4.40
2022-08-25T03:41:41.192Z,4.10
2022-08-25T03:42:45.120Z,4.60
2022-08-25T03:43:48.110Z,4.03
2022-08-25T03:44:50.607Z,4.38
2022-08-25T03:45:52.396Z,4.40
2022-08-25T03:46:54.144Z,4.60
2022-08-25T03:47:56.697Z,4.50
2022-08-25T03:49:00.320Z,4.82
2022-08-25T03:50:02.117Z,4.70
2022-08-25T03:51:04.390Z,4.32
2022-08-25T03:52:06.117Z,4.63
2022-08-25T03:53:07.797Z,4.20
2022-08-25T03:54:13.836Z,4.22
2022-08-25T03:55:15.583Z,4.53
2022-08-25T03:56:17.833Z,4.43
2022-08-25T03:57:20.946Z,4.82
2022-08-25T03:58:22.606Z,4.07
2022-08-25T03:59:24.314Z,4.28
2022-08-25T04:00:26.046Z,4.60
2022-08-25T04:01:28.213Z,4.70
2022-08-25T04:02:31.446Z,4.20
2022-08-25T04:03:33.236Z,4.60
2022-08-25T04:04:35.483Z,4.82
2022-08-25T04:05:37.139Z,4.50
2022-08-25T04:06:40.127Z,4.32
2022-08-25T04:07:41.972Z,4.88
2022-08-25T04:08:43.743Z,4.60
2022-08-25T04:09:45.537Z,4.38
2022-08-25T04:10:48.517Z,4.70
2022-08-25T04:11:52.953Z,4.90
2022-08-25T04:12:55.905Z,4.63
2022-08-25T04:13:59.074Z,5.28
2022-08-25T04:15:01.195Z,5.07
2022-08-25T04:16:04.774Z,4.53
2022-08-25T04:17:06.512Z,4.80
2022-08-25T04:18:08.271Z,4.72
2022-08-25T04:19:10.620Z,4.88
2022-08-25T04:20:14.179Z,4.55
2022-08-25T04:21:17.562Z,4.90
2022-08-25T04:22:19.744Z,4.68
2022-08-25T04:23:21.435Z,5.20
2022-08-25T04:24:23.135Z,4.95
2022-08-25T04:25:24.922Z,4.65
2022-08-25T04:26:32.560Z,4.75
2022-08-25T04:27:34.245Z,5.07
2022-08-25T04:28:35.999Z,4.78
2022-08-25T04:29:38.158Z,5.43
2022-08-25T04:30:43.068Z,5.18
2022-08-25T04:31:52.408Z,4.88
2022-08-25T04:32:54.174Z,4.78
2022-08-25T04:33:56.937Z,4.97
2022-08-25T04:34:59.029Z,4.57
2022-08-25T04:36:00.745Z,4.93
2022-08-25T04:37:05.438Z,4.63
2022-08-25T04:38:07.566Z,4.40
2022-08-25T04:39:09.418Z,5.10
2022-08-25T04:40:13.025Z,4.80
2022-08-25T04:41:16.646Z,5.15
2022-08-25T04:42:18.339Z,5.55
2022-08-25T04:43:20.034Z,4.47
2022-08-25T04:44:21.772Z,4.78
2022-08-25T04:45:23.491Z,4.95
2022-08-25T04:46:28.515Z,5.00
2022-08-25T04:47:31.132Z,5.00
2022-08-25T04:48:33.670Z,5.07
2022-08-25T04:49:37.062Z,4.60
2022-08-25T04:50:39.957Z,5.40
2022-08-25T04:51:42.371Z,4.70
2022-08-25T04:52:44.117Z,5.07
2022-08-25T04:53:46.417Z,4.95
2022-08-25T04:54:48.248Z,5.20
2022-08-25T04:55:50.053Z,5.10
2022-08-25T04:56:54.308Z,5.03
2022-08-25T04:57:59.871Z,5.88
2022-08-25T04:59:07.111Z,5.93
2022-08-25T05:00:09.271Z,5.50
2022-08-25T05:01:17.487Z,5.22
2022-08-25T05:02:19.559Z,5.50
2022-08-25T05:03:21.341Z,5.05
2022-08-25T05:04:28.358Z,5.90
2022-08-25T05:05:31.930Z,4.93
2022-08-25T05:06:36.215Z,5.03
2022-08-25T05:07:38.206Z,5.32
2022-08-25T05:08:40.192Z,5.60
2022-08-25T05:09:41.918Z,5.35
2022-08-25T05:10:43.782Z,5.38
2022-08-25T05:11:45.732Z,5.40
2022-08-25T05:12:49.346Z,5.70
2022-08-25T05:13:53.248Z,5.97
2022-08-25T05:14:55.011Z,5.13
2022-08-25T05:16:00.230Z,5.28
2022-08-25T05:17:02.525Z,5.40
2022-08-25T05:18:04.350Z,5.95
2022-08-25T05:19:07.214Z,6.03
2022-08-25T05:20:09.353Z,5.43
2022-08-25T05:21:13.814Z,5.47
2022-08-25T05:22:15.510Z,5.30
2022-08-25T05:23:17.535Z,5.70
2022-08-25T05:24:19.938Z,5.63
2022-08-25T05:25:21.710Z,5.57
2022-08-25T05:26:24.491Z,5.07
2022-08-25T05:27:26.823Z,5.63
2022-08-25T05:28:28.559Z,6.05
2022-08-25T05:29:30.857Z,5.35
2022-08-25T05:30:32.542Z,6.00
2022-08-25T05:31:38.448Z,5.82
2022-08-25T05:32:43.581Z,6.05
2022-08-25T05:33:45.741Z,5.78
2022-08-25T05:34:47.415Z,5.22
2022-08-25T05:35:49.078Z,5.25
2022-08-25T05:36:52.948Z,5.40
2022-08-25T05:37:57.238Z,5.68
2022-08-25T05:38:58.994Z,5.47
2022-08-25T05:40:01.090Z,5.43
2022-08-25T05:41:06.161Z,5.25
2022-08-25T05:42:08.009Z,5.05
2022-08-25T05:43:10.405Z,4.97
2022-08-25T05:44:12.853Z,5.30
2022-08-25T05:45:20.362Z,5.30
2022-08-25T05:46:23.750Z,5.63
2022-08-25T05:47:25.742Z,5.70
2022-08-25T05:48:27.571Z,5.55
2022-08-25T05:49:29.249Z,6.05
2022-08-25T05:50:30.925Z,5.05
2022-08-25T05:51:32.680Z,5.85
2022-08-25T05:52:34.461Z,5.22
2022-08-25T05:53:37.733Z,5.18
2022-08-25T05:54:40.042Z,5.13
2022-08-25T05:55:45.145Z,5.47
2022-08-25T05:56:47.461Z,5.40
2022-08-25T05:57:50.591Z,5.20
2022-08-25T05:58:52.329Z,5.28
2022-08-25T05:59:53.996Z,5.50
2022-08-25T06:00:56.816Z,5.30
2022-08-25T06:02:17.701Z,5.10
2022-08-25T06:03:19.535Z,5.05
2022-08-25T06:04:22.556Z,4.28
2022-08-25T06:05:24.304Z,4.80
2022-08-25T06:06:26.232Z,4.85
2022-08-25T06:07:28.001Z,5.45
2022-08-25T06:08:33.556Z,4.90
2022-08-25T06:09:37.412Z,5.20
2022-08-25T06:10:39.398Z,5.50
2022-08-25T06:11:41.455Z,5.18
2022-08-25T06:12:45.142Z,4.88
2022-08-25T06:13:46.817Z,4.90
2022-08-25T06:14:49.459Z,5.63
2022-08-25T06:15:57.659Z,5.22
2022-08-25T06:17:00.451Z,5.10
2022-08-25T06:18:03.441Z,5.30
2022-08-25T06:19:06.336Z,5.45
2022-08-25T06:20:11.162Z,5.18
2022-08-25T06:21:16.478Z,5.45
2022-08-25T06:22:18.154Z,5.03
2022-08-25T06:23:19.936Z,5.05
2022-08-25T06:24:21.881Z,5.13
2022-08-25T06:25:25.507Z,5.25
2022-08-25T06:26:27.187Z,4.82
2022-08-25T06:27:28.887Z,5.70
2022-08-25T06:28:30.590Z,5.43
2022-08-25T06:29:32.599Z,4.95
2022-08-25T06:30:34.325Z,5.07
2022-08-25T06:31:36.578Z,5.55
2022-08-25T06:32:40.644Z,5.38
2022-08-25T06:33:42.965Z,5.07
2022-08-25T06:34:44.811Z,5.45
2022-08-25T06:35:46.515Z,5.78
2022-08-25T06:36:48.966Z,5.57
2022-08-25T06:37:51.206Z,5.82
2022-08-25T06:38:53.657Z,5.22
2022-08-25T06:39:55.694Z,5.20
2022-08-25T06:40:58.007Z,5.32
2022-08-25T06:42:00.035Z,5.03
2022-08-25T06:43:01.810Z,5.07
2022-08-25T06:44:05.275Z,5.20
2022-08-25T06:45:08.145Z,4.82
2022-08-25T06:46:20.406Z,4.97
2022-08-25T06:47:22.261Z,5.35
2022-08-25T06:48:23.972Z,5.45
2022-08-25T06:49:31.862Z,7.47
2022-08-25T06:50:38.302Z,8.68
2022-08-25T06:51:41.778Z,8.18
2022-08-25T06:52:43.560Z,8.43
2022-08-25T06:53:46.375Z,8.55
2022-08-25T06:54:49.090Z,9.00
2022-08-25T06:55:58.083Z,8.38
2022-08-25T06:57:00.761Z,9.25
2022-08-25T06:58:04.843Z,9.65
2022-08-25T06:59:07.568Z,9.77
2022-08-25T07:00:11.209Z,9.75
2022-08-25T07:01:20.088Z,10.23
2022-08-25T07:02:22.720Z,9.25
2022-08-25T07:03:25.432Z,9.15
2022-08-25T07:04:27.937Z,8.95
2022-08-25T07:05:45.441Z,9.18
2022-08-25T07:06:47.409Z,9.55
2022-08-25T07:07:52.029Z,8.32
2022-08-25T07:08:54.374Z,8.77
2022-08-25T07:09:56.128Z,10.07
2022-08-25T07:10:58.812Z,8.48
2022-08-25T07:12:02.573Z,9.00
2022-08-25T07:13:04.237Z,8.32
2022-08-25T07:14:08.122Z,8.95
2022-08-25T07:15:19.796Z,8.95
2022-08-25T07:16:22.602Z,7.45
2022-08-25T07:17:27.483Z,8.93
2022-08-25T07:18:29.704Z,8.85
2022-08-25T07:19:31.466Z,8.73
2022-08-25T07:20:36.121Z,8.38
2022-08-25T07:21:39.907Z,9.05
2022-08-25T07:22:41.909Z,9.40
2022-08-25T07:23:43.657Z,8.35
2022-08-25T07:24:45.489Z,9.07
2022-08-25T07:25:47.885Z,9.25
2022-08-25T07:26:50.118Z,8.88
2022-08-25T07:27:53.857Z,8.85
2022-08-25T07:28:59.653Z,8.30
2022-08-25T07:30:01.793Z,8.52
2022-08-25T07:31:06.802Z,7.72
2022-08-25T07:32:11.724Z,7.65
2022-08-25T07:33:13.612Z,7.90
2022-08-25T07:34:34.968Z,8.07
2022-08-25T07:35:40.673Z,8.73
2022-08-25T07:36:45.698Z,8.45
2022-08-25T07:37:50.076Z,8.48
2022-08-25T07:38:52.173Z,9.07
2022-08-25T07:39:53.982Z,8.48
2022-08-25T07:41:05.404Z,7.97
2022-08-25T07:42:11.865Z,8.30
2022-08-25T07:43:13.925Z,8.23
2022-08-25T07:44:15.623Z,7.93
2022-08-25T07:45:20.911Z,7.63
2022-08-25T07:46:22.828Z,7.57
2022-08-25T07:47:24.538Z,7.35
2022-08-25T07:48:26.234Z,7.65
2022-08-25T07:49:35.861Z,7.75
2022-08-25T07:50:45.250Z,7.30
2022-08-25T07:52:05.155Z,6.90
2022-08-25T07:53:08.948Z,6.13
2022-08-25T07:54:10.920Z,5.70
2022-08-25T07:55:13.402Z,5.82
2022-08-25T07:56:19.609Z,6.13
2022-08-25T07:57:22.314Z,5.97
2022-08-25T07:58:24.202Z,5.65
2022-08-25T07:59:25.914Z,6.32
2022-08-25T08:00:30.264Z,5.55
2022-08-25T08:01:32.176Z,5.38
2022-08-25T08:02:35.359Z,5.45
2022-08-25T08:03:50.153Z,5.13
2022-08-25T08:04:53.721Z,5.10
2022-08-25T08:05:56.529Z,5.63
2022-08-25T08:06:58.218Z,5.03
2022-08-25T08:08:00.868Z,5.68
2022-08-25T08:09:03.025Z,5.03
2022-08-25T08:10:33.260Z,5.18
2022-08-25T08:11:33.030Z,5.07
2022-08-25T08:12:35.321Z,5.25
2022-08-25T08:13:41.298Z,5.43
2022-08-25T08:14:45.059Z,6.00
2022-08-25T08:15:48.509Z,5.50
2022-08-25T08:16:50.372Z,5.43
2022-08-25T08:17:52.104Z,5.57
2022-08-25T08:18:54.186Z,4.70
2022-08-25T08:19:55.877Z,5.22
2022-08-25T08:20:57.905Z,5.35
2022-08-25T08:22:02.382Z,5.13
2022-08-25T08:23:04.390Z,5.38
2022-08-25T08:24:14.822Z,4.65
2022-08-25T08:25:29.417Z,5.40
2022-08-25T08:26:55.174Z,5.38
2022-08-25T08:27:55.080Z,5.38
2022-08-25T08:28:56.998Z,5.03
2022-08-25T08:30:00.293Z,5.25
2022-08-25T08:31:02.580Z,4.88
2022-08-25T08:32:06.494Z,5.18
2022-08-25T08:33:11.172Z,5.20
2022-08-25T08:34:13.826Z,5.30
2022-08-25T08:35:18.847Z,5.22
2022-08-25T08:36:25.495Z,5.00
2022-08-25T08:37:28.075Z,5.15
2022-08-25T08:38:29.829Z,4.97
2022-08-25T08:39:31.495Z,5.18
2022-08-25T08:41:07.758Z,4.35
2022-08-25T08:42:22.096Z,5.03
2022-08-25T08:43:24.981Z,6.35
2022-08-25T08:44:42.037Z,10.38
2022-08-25T08:45:50.919Z,4.93
2022-08-25T08:47:09.083Z,4.90
2022-08-25T08:48:31.535Z,5.38
2022-08-25T08:49:48.013Z,5.50
2022-08-25T08:51:16.418Z,4.95
2022-08-25T08:52:27.669Z,5.13
2022-08-25T08:53:54.561Z,5.07
2022-08-25T08:55:05.454Z,4.82
2022-08-25T08:56:15.805Z,4.90
2022-08-25T08:57:25.559Z,4.90
2022-08-25T08:58:40.495Z,4.90
2022-08-25T09:00:01.015Z,4.40
2022-08-25T09:01:03.032Z,5.20
2022-08-25T09:02:06.079Z,4.85
2022-08-25T09:03:36.004Z,5.03
2022-08-25T09:04:51.817Z,4.75
2022-08-25T09:05:56.835Z,4.93
2022-08-25T09:07:00.688Z,4.82
2022-08-25T09:08:13.623Z,4.95
2022-08-25T09:09:37.183Z,4.97
2022-08-25T09:11:02.512Z,4.45
2022-08-25T09:12:47.988Z,4.63
2022-08-25T09:14:11.222Z,4.65
2022-08-25T09:16:09.327Z,4.20
2022-08-25T09:17:35.938Z,5.07
2022-08-25T09:19:06.933Z,4.25
2022-08-25T09:20:38.777Z,4.57
2022-08-25T09:21:57.397Z,4.38
2022-08-25T09:23:09.812Z,4.53
2022-08-25T09:24:32.273Z,4.47
2022-08-25T09:25:53.410Z,4.65
2022-08-25T09:27:04.837Z,4.75
2022-08-25T09:28:30.134Z,4.43
2022-08-25T09:30:06.144Z,4.75
2022-08-25T09:31:17.464Z,4.38
2022-08-25T09:32:22.408Z,4.30
2022-08-25T09:33:27.762Z,4.35
2022-08-25T09:34:33.894Z,4.22
2022-08-25T09:35:39.354Z,4.60
2022-08-25T09:36:42.690Z,4.45
2022-08-25T09:38:05.925Z,3.95
2022-08-25T09:39:07.832Z,4.05
2022-08-25T09:40:12.072Z,4.70
2022-08-25T09:41:19.505Z,4.45
2022-08-25T09:42:23.819Z,4.53
2022-08-25T09:43:33.618Z,4.32
2022-08-25T09:44:44.657Z,4.53
2022-08-25T09:45:50.556Z,4.13
2022-08-25T09:47:08.150Z,4.50
2022-08-25T09:48:40.624Z,4.18
2022-08-25T09:49:49.286Z,4.22
2022-08-25T09:50:57.251Z,4.20
2022-08-25T09:52:31.827Z,4.47
2022-08-25T09:53:34.110Z,4.00
2022-08-25T09:54:44.181Z,4.05
2022-08-25T09:56:00.129Z,4.25
2022-08-25T09:57:05.381Z,4.32
2022-08-25T09:58:22.151Z,4.10
2022-08-25T09:59:36.275Z,4.50
2022-08-25T10:00:38.136Z,4.53
2022-08-25T10:01:52.514Z,4.18
2022-08-25T10:03:00.797Z,4.20
2022-08-25T10:04:18.962Z,3.78
2022-08-25T10:05:25.996Z,4.10
2022-08-25T10:06:33.181Z,4.00
2022-08-25T10:07:48.011Z,3.90
2022-08-25T10:08:58.772Z,4.40
2022-08-25T10:10:04.639Z,3.70
2022-08-25T10:11:15.334Z,4.10
2022-08-25T10:12:27.845Z,4.10
2022-08-25T10:13:38.001Z,3.85
2022-08-25T10:14:44.237Z,3.60
2022-08-25T10:15:47.167Z,3.95
2022-08-25T10:16:50.789Z,4.32
2022-08-25T10:17:53.026Z,4.35
2022-08-25T10:19:26.919Z,4.10
2022-08-25T10:20:33.061Z,4.20
2022-08-25T10:21:41.998Z,4.43
2022-08-25T10:22:44.940Z,4.28
2022-08-25T10:23:52.774Z,4.28
2022-08-25T10:24:55.518Z,4.30
2022-08-25T10:26:09.843Z,4.38
2022-08-25T10:27:45.178Z,4.40
2022-08-25T10:29:28.195Z,4.50
2022-08-25T10:30:54.902Z,3.70
2022-08-25T10:32:06.250Z,4.40
2022-08-25T10:33:39.214Z,4.00
2022-08-25T10:34:51.783Z,4.00
2022-08-25T10:36:12.340Z,4.40
2022-08-25T10:38:01.715Z,3.75
2022-08-25T10:39:03.588Z,3.95
2022-08-25T10:40:26.048Z,4.15
2022-08-25T10:41:53.796Z,4.07
2022-08-25T10:43:11.092Z,4.20
2022-08-25T10:44:49.115Z,3.90
2022-08-25T10:46:14.390Z,3.90
2022-08-25T10:47:22.102Z,3.95
2022-08-25T10:48:24.008Z,3.90
2022-08-25T10:49:39.688Z,3.65
2022-08-25T10:50:59.129Z,3.28
2022-08-25T10:52:10.299Z,3.10
2022-08-25T10:53:21.444Z,3.58
2022-08-25T10:55:01.966Z,4.03
2022-08-25T10:56:17.181Z,3.80
2022-08-25T10:57:43.955Z,3.70
2022-08-25T10:58:51.520Z,3.75
2022-08-25T11:00:13.983Z,3.90
2022-08-25T11:01:53.461Z,3.80
2022-08-25T11:03:27.410Z,3.70
2022-08-25T11:04:45.851Z,3.70
2022-08-25T11:05:51.646Z,4.20
2022-08-25T11:07:03.037Z,3.70
2022-08-25T11:08:25.254Z,4.18
2022-08-25T11:09:38.640Z,3.83
2022-08-25T11:10:56.798Z,3.72
2022-08-25T11:12:08.684Z,3.92
2022-08-25T11:13:17.058Z,3.75
2022-08-25T11:14:24.999Z,3.17
2022-08-25T11:15:59.946Z,3.15
2022-08-25T11:17:20.227Z,3.35
2022-08-25T11:18:24.540Z,3.50
2022-08-25T11:19:30.819Z,3.58
2022-08-25T11:20:57.635Z,3.30
2022-08-25T11:22:33.613Z,3.45
2022-08-25T11:23:57.777Z,3.22
2022-08-25T11:25:09.299Z,3.20
2022-08-25T11:26:13.593Z,3.35
2022-08-25T11:27:24.264Z,3.55
2022-08-25T11:28:40.885Z,3.25
2022-08-25T11:29:55.958Z,3.33
2022-08-25T11:31:00.492Z,3.15
2022-08-25T11:32:03.854Z,3.45
2022-08-25T11:33:06.737Z,3.00
2022-08-25T11:34:15.852Z,2.67
2022-08-25T11:35:40.851Z,2.78
2022-08-25T11:36:51.929Z,3.17
2022-08-25T11:38:18.560Z,3.10
2022-08-25T11:40:01.487Z,3.03
2022-08-25T11:41:19.351Z,3.35
2022-08-25T11:42:42.998Z,3.00
2022-08-25T11:43:47.727Z,3.25
2022-08-25T11:45:33.094Z,3.05
2022-08-25T11:46:56.742Z,3.58
2022-08-25T11:48:28.790Z,3.30
2022-08-25T11:49:56.843Z,3.28
2022-08-25T11:51:03.678Z,3.03
2022-08-25T11:52:30.806Z,2.83
2022-08-25T11:53:38.550Z,3.10
2022-08-25T11:54:45.703Z,3.10
2022-08-25T11:55:51.474Z,3.20
2022-08-25T11:57:13.410Z,3.20
2022-08-25T11:58:39.158Z,2.70
2022-08-25T11:59:51.587Z,2.92
2022-08-25T12:00:54.018Z,3.13
2022-08-25T12:01:55.664Z,3.00
2022-08-25T12:03:00.930Z,3.08
2022-08-25T12:04:30.853Z,2.75
2022-08-25T12:05:41.384Z,3.25
2022-08-25T12:07:06.064Z,3.13
2022-08-25T12:08:27.326Z,3.15
2022-08-25T12:09:29.039Z,2.90
2022-08-25T12:10:57.505Z,3.40
2022-08-25T12:12:29.629Z,3.17
2022-08-25T12:13:48.201Z,3.10
2022-08-25T12:14:51.830Z,2.90
2022-08-25T12:15:58.609Z,2.97
2022-08-25T12:17:12.002Z,3.30
2022-08-25T12:18:40.112Z,3.28
2022-08-25T12:19:54.438Z,2.97
2022-08-25T12:20:59.042Z,3.05
2022-08-25T12:22:04.161Z,2.80
2022-08-25T12:23:06.835Z,2.90
2022-08-25T12:24:12.857Z,2.88
2022-08-25T12:25:32.102Z,3.20
2022-08-25T12:26:52.473Z,2.95
2022-08-25T12:28:34.840Z,2.75
2022-08-25T12:29:49.322Z,2.88
2022-08-25T12:31:01.587Z,2.38
2022-08-25T12:32:45.596Z,3.42
2022-08-25T12:34:14.230Z,3.10
2022-08-25T12:35:37.068Z,3.10
2022-08-25T12:36:39.314Z,3.05
2022-08-25T12:38:26.957Z,3.05
2022-08-25T12:39:42.837Z,2.95
2022-08-25T12:40:45.326Z,2.85
2022-08-25T12:41:58.435Z,2.80
2022-08-25T12:43:13.830Z,3.00
2022-08-25T12:44:44.735Z,2.60
2022-08-25T12:45:53.032Z,2.50
2022-08-25T12:47:19.206Z,2.88
2022-08-25T12:48:27.805Z,2.67
2022-08-25T12:49:34.207Z,2.85
2022-08-25T12:50:44.535Z,2.92
2022-08-25T12:52:02.085Z,3.90
2022-08-25T12:53:28.067Z,2.85
2022-08-25T12:54:47.641Z,3.10
2022-08-25T12:56:01.364Z,2.95
2022-08-25T12:57:36.808Z,3.22
2022-08-25T12:59:00.942Z,3.30
2022-08-25T13:00:15.960Z,3.25
2022-08-25T13:01:37.741Z,2.95
2022-08-25T13:03:16.460Z,2.72
2022-08-25T13:04:31.374Z,2.97
2022-08-25T13:05:54.383Z,2.90
2022-08-25T13:07:13.497Z,3.15
2022-08-25T13:08:52.852Z,2.90
2022-08-25T13:10:16.528Z,2.97
2022-08-25T13:11:46.242Z,2.60
2022-08-25T13:13:04.979Z,2.53
2022-08-25T13:14:26.889Z,2.58
2022-08-25T13:15:57.734Z,2.88
2022-08-25T13:17:00.942Z,2.55
2022-08-25T13:18:20.353Z,2.70
2022-08-25T13:19:22.623Z,2.25
2022-08-25T13:20:28.410Z,2.38
2022-08-25T13:21:37.189Z,2.70
2022-08-25T13:22:39.364Z,2.50
2022-08-25T13:23:44.420Z,2.58
2022-08-25T13:24:50.842Z,2.50
2022-08-25T13:25:54.100Z,2.67
2022-08-25T13:27:05.008Z,2.42
2022-08-25T13:28:50.334Z,2.55
2022-08-25T13:29:55.875Z,2.60
2022-08-25T13:31:07.969Z,2.47
2022-08-25T13:32:14.475Z,2.58
2022-08-25T13:33:20.156Z,3.00
2022-08-25T13:34:34.737Z,2.83
2022-08-25T13:35:36.783Z,2.50
2022-08-25T13:37:05.826Z,2.50
2022-08-25T13:38:19.410Z,2.65
2022-08-25T13:39:45.154Z,2.60
2022-08-25T13:40:47.612Z,2.78
2022-08-25T13:41:55.571Z,2.70
2022-08-25T13:43:05.447Z,2.67
2022-08-25T13:44:07.473Z,2.40
2022-08-25T13:45:19.276Z,2.60
2022-08-25T13:46:22.573Z,2.53
2022-08-25T13:47:43.816Z,2.75
2022-08-25T13:48:49.376Z,2.58
2022-08-25T13:49:51.654Z,2.80
2022-08-25T13:51:09.273Z,2.88
2022-08-25T13:52:26.661Z,2.95
2022-08-25T13:53:31.722Z,2.60
2022-08-25T13:54:41.145Z,2.75
2022-08-25T13:55:57.353Z,2.70
2022-08-25T13:57:26.926Z,2.58
2022-08-25T13:58:44.844Z,2.60
2022-08-25T13:59:51.455Z,2.63
2022-08-25T14:01:22.419Z,2.88
2022-08-25T14:02:52.413Z,2.55
2022-08-25T14:03:57.649Z,2.50
2022-08-25T14:05:03.352Z,3.05
2022-08-25T14:06:16.456Z,3.47
2022-08-25T14:07:21.047Z,2.63
2022-08-25T14:08:36.459Z,2.47
2022-08-25T14:09:42.520Z,2.55
2022-08-25T14:10:45.406Z,2.50
2022-08-25T14:11:56.479Z,2.65
2022-08-25T14:13:14.106Z,2.50
2022-08-25T14:14:23.433Z,2.55
2022-08-25T14:15:25.838Z,2.58
2022-08-25T14:16:29.313Z,2.45
2022-08-25T14:17:40.085Z,3.42
2022-08-25T14:18:54.634Z,2.70
2022-08-25T14:20:00.728Z,2.67
2022-08-25T14:21:11.230Z,2.38
2022-08-25T14:22:14.786Z,2.85
2022-08-25T14:23:24.139Z,2.60
2022-08-25T14:24:27.102Z,2.60
2022-08-25T14:25:30.422Z,2.00
2022-08-25T14:26:32.295Z,2.70
2022-08-25T14:27:38.965Z,2.40
2022-08-25T14:28:53.084Z,2.47
2022-08-25T14:29:54.809Z,2.63
2022-08-25T14:31:05.319Z,2.60
2022-08-25T14:32:07.726Z,2.58
2022-08-25T14:33:12.873Z,2.70
2022-08-25T14:34:21.460Z,2.53
2022-08-25T14:35:23.142Z,2.50
2022-08-25T14:36:25.438Z,2.55
2022-08-25T14:37:28.790Z,2.22
2022-08-25T14:38:35.235Z,2.42
2022-08-25T14:39:37.505Z,2.65
2022-08-25T14:40:40.209Z,2.67
2022-08-25T14:41:47.527Z,2.78
2022-08-25T14:42:54.906Z,2.80
2022-08-25T14:43:56.795Z,2.50
2022-08-25T14:44:58.950Z,2.55
2022-08-25T14:46:07.887Z,2.63
2022-08-25T14:47:09.870Z,2.60
2022-08-25T14:48:18.078Z,2.70
2022-08-25T14:49:33.579Z,2.70
2022-08-25T14:50:35.782Z,2.60
2022-08-25T14:51:40.454Z,2.97
2022-08-25T14:52:43.796Z,2.55
2022-08-25T14:53:46.397Z,2.70
2022-08-25T14:54:48.195Z,5.55
2022-08-25T14:55:53.709Z,2.88
2022-08-25T14:57:00.776Z,2.65
2022-08-25T14:58:02.471Z,2.60
2022-08-25T14:59:04.864Z,2.97
2022-08-25T15:00:09.093Z,2.60
2022-08-25T15:01:15.788Z,2.55
2022-08-25T15:02:21.613Z,2.80
2022-08-25T15:03:37.600Z,2.85
2022-08-25T15:04:39.829Z,2.55
2022-08-25T15:05:50.827Z,2.95
2022-08-25T15:06:57.337Z,2.90